createdAt,value
2023-04-09T00:02:28.130Z,219.57
2023-04-09T00:04:55.841Z,224.30
2023-04-09T00:07:23.593Z,230.07
2023-04-09T00:09:51.246Z,215.97
2023-04-09T00:12:18.923Z,229.77
2023-04-09T00:14:46.668Z,233.73
2023-04-09T00:17:14.515Z,225.40
2023-04-09T00:19:43.590Z,218.97
2023-04-09T00:22:11.423Z,216.00
2023-04-09T00:24:39.039Z,230.97
2023-04-09T00:27:06.992Z,212.57
2023-04-09T00:29:34.736Z,216.63
2023-04-09T00:32:02.743Z,222.27
2023-04-09T00:34:30.530Z,209.30
2023-04-09T00:36:59.706Z,222.87
2023-04-09T00:39:28.092Z,212.33
2023-04-09T00:41:59.291Z,220.17
2023-04-09T00:44:26.929Z,206.40
2023-04-09T00:46:55.493Z,224.67
2023-04-09T00:49:24.695Z,208.17
2023-04-09T00:51:52.396Z,222.60
2023-04-09T00:54:21.509Z,211.80
2023-04-09T00:56:49.202Z,223.93
2023-04-09T00:59:17.599Z,209.37
2023-04-09T01:01:46.191Z,219.60
2023-04-09T01:04:13.975Z,210.53
2023-04-09T01:06:50.686Z,210.87
2023-04-09T01:09:28.709Z,213.00
2023-04-09T01:12:07.422Z,215.70
2023-04-09T01:14:39.865Z,228.13
2023-04-09T01:17:16.630Z,202.50
2023-04-09T01:19:49.922Z,220.53
2023-04-09T01:22:31.498Z,218.83
2023-04-09T01:25:08.058Z,205.73
2023-04-09T01:27:52.614Z,201.67
2023-04-09T01:30:22.741Z,201.90
2023-04-09T01:32:52.767Z,219.20
2023-04-09T01:35:21.812Z,206.83
2023-04-09T01:37:50.666Z,214.00
2023-04-09T01:40:18.415Z,213.10
2023-04-09T01:42:47.277Z,199.10
2023-04-09T01:45:16.717Z,215.93
2023-04-09T01:47:46.592Z,182.67
2023-04-09T01:50:14.324Z,204.03
2023-04-09T01:52:42.172Z,192.90
2023-04-09T01:55:10.126Z,199.97
2023-04-09T01:57:37.796Z,193.17
2023-04-09T02:00:09.324Z,184.70
2023-04-09T02:03:00.257Z,157.77
2023-04-09T02:05:32.844Z,167.57
2023-04-09T02:08:05.061Z,167.50
2023-04-09T02:10:35.478Z,162.63
2023-04-09T02:13:06.721Z,169.63
2023-04-09T02:15:37.487Z,164.63
2023-04-09T02:18:21.374Z,158.87
2023-04-09T02:20:49.339Z,165.97
2023-04-09T02:23:16.993Z,168.00
2023-04-09T02:25:45.475Z,172.03
2023-04-09T02:28:13.317Z,158.87
2023-04-09T02:30:47.064Z,140.33
2023-04-09T02:33:16.258Z,156.37
2023-04-09T02:35:44.504Z,156.93
2023-04-09T02:38:13.804Z,154.97
2023-04-09T02:40:42.030Z,159.97
2023-04-09T02:43:09.923Z,162.23
2023-04-09T02:45:37.906Z,161.63
2023-04-09T02:48:05.990Z,155.23
2023-04-09T02:50:37.536Z,149.77
2023-04-09T02:53:05.218Z,151.30
2023-04-09T02:55:33.050Z,152.23
2023-04-09T02:58:00.795Z,153.83
2023-04-09T03:00:28.514Z,162.63
2023-04-09T03:02:58.034Z,152.80
2023-04-09T03:05:26.106Z,150.43
2023-04-09T03:07:55.989Z,150.90
2023-04-09T03:10:23.888Z,145.83
2023-04-09T03:12:51.540Z,152.63
2023-04-09T03:15:19.403Z,150.30
2023-04-09T03:17:47.107Z,155.77
2023-04-09T03:20:14.819Z,153.10
2023-04-09T03:22:43.159Z,159.70
2023-04-09T03:25:23.625Z,149.73
2023-04-09T03:27:54.966Z,152.80
2023-04-09T03:30:36.004Z,149.03
2023-04-09T03:33:06.751Z,165.23
2023-04-09T03:35:43.304Z,159.07
2023-04-09T03:38:12.176Z,168.03
2023-04-09T03:40:41.971Z,152.07
2023-04-09T03:43:09.890Z,168.20
2023-04-09T03:45:39.916Z,160.30
2023-04-09T03:48:22.302Z,161.33
2023-04-09T03:50:50.990Z,156.23
2023-04-09T03:53:26.350Z,173.17
2023-04-09T03:56:02.919Z,161.40
2023-04-09T03:58:30.996Z,168.13
2023-04-09T04:00:59.555Z,172.40
2023-04-09T04:03:36.375Z,168.63
2023-04-09T04:06:39.610Z,162.80
2023-04-09T04:09:20.336Z,161.20
2023-04-09T04:11:55.852Z,167.97
2023-04-09T04:14:27.045Z,169.70
2023-04-09T04:17:02.200Z,164.77
2023-04-09T04:19:31.652Z,176.43
2023-04-09T04:22:00.648Z,181.87
2023-04-09T04:24:28.522Z,170.97
2023-04-09T04:26:57.740Z,171.60
2023-04-09T04:29:31.594Z,175.70
2023-04-09T04:32:01.980Z,172.60
2023-04-09T04:34:35.784Z,164.27
2023-04-09T04:37:10.904Z,157.23
2023-04-09T04:39:38.537Z,179.00
2023-04-09T04:42:12.588Z,166.83
2023-04-09T04:44:40.820Z,170.07
2023-04-09T04:47:30.714Z,160.53
2023-04-09T04:49:59.693Z,172.07
2023-04-09T04:52:27.406Z,164.50
2023-04-09T04:54:55.390Z,173.83
2023-04-09T04:57:26.173Z,168.17
2023-04-09T04:59:54.526Z,169.07
2023-04-09T05:02:22.607Z,168.67
2023-04-09T05:05:09.204Z,160.53
2023-04-09T05:07:42.661Z,173.93
2023-04-09T05:10:10.843Z,164.87
2023-04-09T05:12:43.111Z,158.93
2023-04-09T05:15:13.187Z,166.17
2023-04-09T05:17:43.738Z,170.07
2023-04-09T05:20:12.871Z,157.00
2023-04-09T05:22:49.300Z,166.80
2023-04-09T05:25:17.410Z,158.73
2023-04-09T05:27:46.601Z,169.27
2023-04-09T05:30:14.414Z,169.50
2023-04-09T05:32:42.979Z,171.70
2023-04-09T05:35:10.856Z,173.87
2023-04-09T05:37:42.273Z,170.27
2023-04-09T05:40:11.113Z,174.53
2023-04-09T05:42:39.032Z,179.80
2023-04-09T05:45:14.536Z,175.70
2023-04-09T05:47:48.958Z,172.70
2023-04-09T05:50:23.320Z,175.77
2023-04-09T05:52:54.437Z,169.03
2023-04-09T05:55:27.508Z,183.33
2023-04-09T05:57:59.918Z,178.70
2023-04-09T06:00:29.343Z,179.87
2023-04-09T06:02:57.157Z,183.17
2023-04-09T06:05:24.839Z,189.97
2023-04-09T06:07:52.642Z,173.33
2023-04-09T06:10:20.478Z,193.27
2023-04-09T06:12:49.541Z,179.73
2023-04-09T06:15:18.592Z,190.00
2023-04-09T06:17:47.768Z,200.07
2023-04-09T06:20:15.535Z,188.67
2023-04-09T06:22:43.154Z,201.23
2023-04-09T06:25:10.967Z,190.50
2023-04-09T06:27:38.646Z,188.90
2023-04-09T06:30:07.759Z,217.13
2023-04-09T06:32:47.007Z,218.60
2023-04-09T06:35:22.555Z,186.17
2023-04-09T06:37:50.359Z,202.50
2023-04-09T06:40:20.146Z,197.00
2023-04-09T06:42:49.073Z,209.70
2023-04-09T06:45:23.009Z,192.33
2023-04-09T06:47:50.982Z,193.00
2023-04-09T06:50:18.767Z,197.03
2023-04-09T06:52:47.805Z,204.77
2023-04-09T06:55:15.559Z,212.00
2023-04-09T06:57:43.288Z,199.43
2023-04-09T07:00:12.140Z,216.67
2023-04-09T07:02:40.477Z,208.13
2023-04-09T07:05:09.288Z,212.13
2023-04-09T07:07:37.028Z,218.50
2023-04-09T07:10:07.316Z,219.97
2023-04-09T07:12:35.670Z,222.70
2023-04-09T07:15:05.780Z,220.97
2023-04-09T07:17:34.069Z,229.37
2023-04-09T07:20:01.992Z,224.83
2023-04-09T07:22:30.676Z,223.30
2023-04-09T07:24:58.358Z,227.77
2023-04-09T07:27:28.848Z,204.87
2023-04-09T07:29:57.090Z,236.43
2023-04-09T07:32:25.379Z,248.60
2023-04-09T07:34:53.563Z,246.53
2023-04-09T07:37:21.754Z,227.63
2023-04-09T07:39:51.201Z,240.98
2023-04-09T07:42:19.068Z,233.77
2023-04-09T07:44:48.093Z,247.20
2023-04-09T07:47:15.992Z,240.10
2023-04-09T07:49:43.896Z,259.52
2023-04-09T07:52:11.696Z,238.73
2023-04-09T07:54:39.389Z,233.18
2023-04-09T07:57:08.099Z,246.93
2023-04-09T07:59:36.304Z,254.15
2023-04-09T08:02:05.503Z,255.95
2023-04-09T08:04:33.586Z,249.02
2023-04-09T08:07:01.575Z,256.40
2023-04-09T08:09:29.374Z,247.27
2023-04-09T08:11:57.199Z,236.27
2023-04-09T08:14:24.938Z,224.68
2023-04-09T08:16:53.033Z,237.20
2023-04-09T08:19:22.207Z,214.45
2023-04-09T08:21:49.953Z,207.50
2023-04-09T08:24:18.291Z,224.40
2023-04-09T08:26:46.168Z,211.65
2023-04-09T08:29:14.411Z,211.70
2023-04-09T08:31:42.989Z,209.65
2023-04-09T08:34:10.861Z,200.63
2023-04-09T08:36:40.243Z,188.02
2023-04-09T08:39:07.973Z,193.60
2023-04-09T08:41:39.171Z,198.90
2023-04-09T08:44:07.255Z,198.30
2023-04-09T08:46:37.101Z,187.32
2023-04-09T08:49:04.900Z,193.57
2023-04-09T08:51:32.935Z,185.20
2023-04-09T08:54:04.610Z,195.70
2023-04-09T08:56:33.424Z,202.88
2023-04-09T08:59:01.222Z,191.05
2023-04-09T09:01:30.481Z,183.55
2023-04-09T09:04:00.007Z,173.27
2023-04-09T09:06:30.025Z,183.60
2023-04-09T09:09:05.226Z,167.73
2023-04-09T09:11:33.453Z,167.75
2023-04-09T09:14:03.397Z,173.32
2023-04-09T09:16:33.161Z,163.18
2023-04-09T09:19:01.917Z,163.73
2023-04-09T09:21:30.576Z,147.23
2023-04-09T09:23:58.785Z,143.23
2023-04-09T09:26:30.057Z,139.10
2023-04-09T09:28:59.753Z,141.38
2023-04-09T09:31:27.912Z,140.90
2023-04-09T09:33:56.382Z,131.23
2023-04-09T09:36:34.047Z,143.38
2023-04-09T09:39:09.986Z,133.98
2023-04-09T09:41:39.834Z,126.68
2023-04-09T09:44:08.003Z,126.72
2023-04-09T09:46:38.313Z,124.75
2023-04-09T09:49:06.183Z,118.38
2023-04-09T09:51:36.878Z,116.00
2023-04-09T09:54:04.953Z,116.50
2023-04-09T09:56:36.040Z,114.22
2023-04-09T09:59:14.055Z,112.18
2023-04-09T10:01:42.678Z,111.75
2023-04-09T10:04:15.687Z,103.13
2023-04-09T10:06:45.157Z,103.88
2023-04-09T10:09:13.823Z,108.00
2023-04-09T10:11:45.442Z,102.38
2023-04-09T10:14:15.326Z,121.47
2023-04-09T10:16:43.368Z,107.65
2023-04-09T10:19:14.174Z,108.97
2023-04-09T10:21:48.625Z,99.93
2023-04-09T10:24:17.324Z,111.90
2023-04-09T10:26:46.016Z,106.72
2023-04-09T10:29:16.898Z,97.95
2023-04-09T10:31:50.071Z,96.03
2023-04-09T10:34:19.403Z,100.50
2023-04-09T10:36:51.560Z,92.22
2023-04-09T10:39:19.527Z,94.90
2023-04-09T10:41:48.971Z,94.55
2023-04-09T10:44:25.239Z,100.07
2023-04-09T10:46:55.186Z,96.07
2023-04-09T10:49:24.272Z,102.03
2023-04-09T10:51:53.405Z,106.50
2023-04-09T10:54:43.681Z,103.82
2023-04-09T10:57:13.622Z,104.70
2023-04-09T10:59:44.897Z,105.55
2023-04-09T11:02:55.866Z,99.80
2023-04-09T11:05:30.082Z,97.90
2023-04-09T11:08:04.163Z,100.15
2023-04-09T11:10:32.309Z,99.25
2023-04-09T11:13:00.431Z,95.70
2023-04-09T11:15:30.100Z,102.40
2023-04-09T11:17:58.535Z,108.88
2023-04-09T11:20:27.465Z,99.88
2023-04-09T11:22:56.617Z,100.53
2023-04-09T11:25:26.323Z,105.35
2023-04-09T11:27:54.820Z,103.68
2023-04-09T11:30:22.738Z,95.25
2023-04-09T11:32:52.350Z,106.68
2023-04-09T11:35:22.143Z,99.20
2023-04-09T11:37:52.233Z,88.20
2023-04-09T11:40:22.003Z,101.72
2023-04-09T11:42:51.255Z,90.68
2023-04-09T11:45:20.417Z,86.35
2023-04-09T11:47:48.409Z,83.78
2023-04-09T11:50:17.609Z,85.68
2023-04-09T11:52:46.205Z,87.00
2023-04-09T11:55:23.491Z,77.13
2023-04-09T11:57:53.040Z,78.20
2023-04-09T12:00:21.268Z,74.93
2023-04-09T12:02:50.484Z,73.45
2023-04-09T12:05:24.706Z,70.65
2023-04-09T12:07:56.605Z,68.00
2023-04-09T12:10:28.275Z,74.40
2023-04-09T12:12:56.247Z,76.82
2023-04-09T12:15:25.712Z,84.65
2023-04-09T12:17:57.024Z,78.65
2023-04-09T12:20:34.359Z,75.68
2023-04-09T12:23:05.726Z,72.82
2023-04-09T12:25:35.405Z,69.50
2023-04-09T12:28:03.678Z,66.03
2023-04-09T12:30:31.424Z,69.60
2023-04-09T12:32:59.842Z,72.30
2023-04-09T12:35:28.194Z,75.45
2023-04-09T12:37:57.525Z,85.57
2023-04-09T12:40:25.186Z,86.53
2023-04-09T12:42:53.146Z,91.32
2023-04-09T12:45:21.496Z,88.43
2023-04-09T12:47:49.428Z,88.65
2023-04-09T12:50:17.193Z,90.82
2023-04-09T12:52:45.427Z,93.63
2023-04-09T12:55:15.081Z,97.72
2023-04-09T12:57:45.267Z,99.15
2023-04-09T13:00:14.285Z,99.10
2023-04-09T13:02:42.413Z,101.03
2023-04-09T13:05:10.615Z,110.03
2023-04-09T13:07:38.592Z,109.13
2023-04-09T13:10:07.717Z,112.85
2023-04-09T13:12:36.751Z,95.30
2023-04-09T13:15:05.053Z,96.72
2023-04-09T13:17:32.816Z,97.40
2023-04-09T13:20:01.271Z,91.72
2023-04-09T13:22:28.998Z,88.50
2023-04-09T13:24:56.863Z,96.95
2023-04-09T13:27:24.710Z,87.15
2023-04-09T13:29:53.906Z,80.72
2023-04-09T13:32:24.064Z,97.45
2023-04-09T13:34:53.645Z,89.50
2023-04-09T13:37:21.513Z,94.72
2023-04-09T13:39:49.270Z,94.28
2023-04-09T13:42:17.084Z,88.30
2023-04-09T13:44:45.523Z,87.30
2023-04-09T13:47:18.123Z,87.72
2023-04-09T13:49:46.176Z,90.25
2023-04-09T13:52:15.737Z,87.05
2023-04-09T13:54:43.381Z,87.90
2023-04-09T13:57:11.272Z,82.13
2023-04-09T13:59:39.107Z,79.30
2023-04-09T14:02:06.987Z,89.60
2023-04-09T14:04:36.147Z,85.53
2023-04-09T14:07:04.001Z,79.53
2023-04-09T14:09:31.915Z,72.95
2023-04-09T14:11:59.589Z,77.85
2023-04-09T14:14:27.562Z,72.78
2023-04-09T14:16:55.312Z,68.95
2023-04-09T14:19:24.074Z,70.78
2023-04-09T14:21:54.081Z,75.90
2023-04-09T14:24:23.122Z,78.50
2023-04-09T14:26:53.007Z,76.22
2023-04-09T14:29:20.826Z,72.43
2023-04-09T14:31:48.845Z,76.00
2023-04-09T14:34:16.541Z,66.30
2023-04-09T14:36:44.253Z,70.15
2023-04-09T14:39:13.274Z,63.80
2023-04-09T14:41:41.537Z,74.00
2023-04-09T14:44:09.335Z,72.35
2023-04-09T14:46:38.085Z,75.50
2023-04-09T14:49:06.258Z,72.70
2023-04-09T14:51:34.075Z,66.60
2023-04-09T14:54:02.516Z,71.82
2023-04-09T14:56:31.506Z,69.55
2023-04-09T14:58:59.225Z,65.38
2023-04-09T15:01:27.155Z,63.25
2023-04-09T15:03:55.652Z,65.00
2023-04-09T15:06:23.586Z,68.78
2023-04-09T15:08:51.519Z,71.55
2023-04-09T15:11:22.771Z,64.43
2023-04-09T15:13:52.333Z,73.20
2023-04-09T15:16:24.494Z,72.55
2023-04-09T15:18:52.851Z,71.10
2023-04-09T15:21:20.758Z,66.97
2023-04-09T15:23:48.673Z,73.53
2023-04-09T15:26:16.971Z,69.00
2023-04-09T15:28:46.087Z,65.28
2023-04-09T15:31:15.183Z,70.47
2023-04-09T15:33:43.722Z,58.40
2023-04-09T15:36:11.962Z,62.35
2023-04-09T15:38:40.068Z,63.53
2023-04-09T15:41:07.819Z,72.00
2023-04-09T15:43:35.596Z,65.93
2023-04-09T15:46:08.856Z,65.00
2023-04-09T15:48:38.187Z,71.68
2023-04-09T15:51:06.685Z,70.88
2023-04-09T15:53:34.361Z,71.85
2023-04-09T15:56:02.158Z,73.72
2023-04-09T15:58:29.883Z,66.68
2023-04-09T16:00:57.598Z,67.78
2023-04-09T16:03:25.615Z,63.95
2023-04-09T16:05:54.614Z,71.18
2023-04-09T16:08:22.301Z,67.72
2023-04-09T16:10:50.389Z,74.38
2023-04-09T16:13:18.036Z,67.40
2023-04-09T16:15:46.702Z,69.45
2023-04-09T16:18:14.453Z,71.90
2023-04-09T16:20:42.181Z,67.43
2023-04-09T16:23:11.213Z,68.78
2023-04-09T16:25:39.016Z,69.57
2023-04-09T16:28:06.731Z,76.72
2023-04-09T16:30:34.374Z,76.25
2023-04-09T16:33:02.236Z,75.32
2023-04-09T16:35:29.947Z,74.57
2023-04-09T16:37:57.730Z,75.97
2023-04-09T16:40:26.779Z,76.13
2023-04-09T16:42:54.511Z,71.10
2023-04-09T16:45:22.483Z,79.93
2023-04-09T16:47:53.373Z,73.93
2023-04-09T16:50:21.851Z,71.15
2023-04-09T16:52:49.801Z,73.00
2023-04-09T16:55:18.704Z,72.88
2023-04-09T16:57:47.663Z,75.22
2023-04-09T17:00:17.342Z,73.53
2023-04-09T17:02:45.782Z,70.40
2023-04-09T17:05:13.700Z,68.35
2023-04-09T17:07:41.421Z,70.50
2023-04-09T17:10:09.977Z,58.20
2023-04-09T17:12:38.046Z,63.80
2023-04-09T17:15:08.543Z,66.18
2023-04-09T17:17:36.297Z,71.80
2023-04-09T17:20:04.502Z,66.50
2023-04-09T17:22:32.395Z,64.82
2023-04-09T17:25:00.351Z,70.20
2023-04-09T17:27:28.558Z,73.68
2023-04-09T17:29:56.343Z,71.85
2023-04-09T17:32:25.455Z,62.28
2023-04-09T17:34:53.254Z,69.28
2023-04-09T17:37:21.168Z,74.80
2023-04-09T17:39:48.866Z,69.30
2023-04-09T17:42:16.686Z,69.93
2023-04-09T17:44:45.930Z,71.05
2023-04-09T17:47:13.688Z,74.72
2023-04-09T17:49:42.716Z,74.40
2023-04-09T17:52:10.500Z,74.18
2023-04-09T17:54:39.110Z,74.28
2023-04-09T17:57:07.872Z,80.00
2023-04-09T17:59:35.707Z,91.97
2023-04-09T18:02:03.627Z,105.38
2023-04-09T18:04:32.501Z,104.00
2023-04-09T18:07:01.899Z,105.53
2023-04-09T18:09:29.642Z,99.50
2023-04-09T18:11:57.753Z,110.03
2023-04-09T18:14:25.568Z,107.85
2023-04-09T18:16:53.583Z,102.15
2023-04-09T18:19:21.752Z,111.40
2023-04-09T18:21:49.383Z,112.65
2023-04-09T18:24:18.973Z,98.38
2023-04-09T18:26:46.594Z,104.72
2023-04-09T18:29:14.316Z,100.95
2023-04-09T18:31:42.034Z,106.93
2023-04-09T18:34:09.752Z,102.93
2023-04-09T18:36:37.623Z,108.43
2023-04-09T18:39:05.774Z,110.03
2023-04-09T18:41:34.848Z,114.33
2023-04-09T18:44:03.964Z,119.30
2023-04-09T18:46:32.057Z,118.03
2023-04-09T18:48:59.806Z,121.37
2023-04-09T18:51:27.963Z,128.80
2023-04-09T18:53:55.842Z,142.67
2023-04-09T18:56:24.596Z,142.33
2023-04-09T18:58:53.859Z,145.10
2023-04-09T19:01:22.142Z,145.07
2023-04-09T19:03:49.929Z,143.20
2023-04-09T19:06:19.824Z,152.13
2023-04-09T19:08:47.921Z,153.27
2023-04-09T19:11:16.118Z,150.03
2023-04-09T19:13:43.764Z,154.77
2023-04-09T19:16:13.146Z,157.47
2023-04-09T19:18:40.891Z,171.63
2023-04-09T19:21:08.970Z,162.10
2023-04-09T19:23:36.638Z,171.37
2023-04-09T19:26:05.377Z,176.83
2023-04-09T19:28:33.267Z,182.90
2023-04-09T19:31:02.815Z,180.40
2023-04-09T19:33:32.701Z,175.23
2023-04-09T19:36:00.420Z,186.87
2023-04-09T19:38:28.174Z,167.57
2023-04-09T19:40:56.159Z,187.90
2023-04-09T19:43:23.979Z,182.63
2023-04-09T19:45:51.670Z,174.83
2023-04-09T19:48:19.441Z,174.57
2023-04-09T19:50:48.878Z,165.37
2023-04-09T19:53:16.604Z,169.13
2023-04-09T19:55:44.613Z,170.13
2023-04-09T19:58:12.276Z,175.17
2023-04-09T20:00:39.998Z,186.13
2023-04-09T20:03:08.037Z,173.97
2023-04-09T20:05:35.847Z,188.07
2023-04-09T20:08:05.575Z,202.27
2023-04-09T20:10:33.314Z,188.03
2023-04-09T20:13:01.614Z,209.17
2023-04-09T20:15:29.690Z,203.77
2023-04-09T20:17:57.390Z,202.57
2023-04-09T20:20:25.177Z,190.83
2023-04-09T20:22:56.144Z,189.70
2023-04-09T20:25:27.814Z,182.33
2023-04-09T20:27:55.830Z,211.30
2023-04-09T20:30:23.620Z,193.80
2023-04-09T20:32:51.584Z,200.10
2023-04-09T20:35:19.399Z,193.30
2023-04-09T20:37:48.378Z,198.37
2023-04-09T20:40:16.454Z,190.83
2023-04-09T20:42:45.509Z,183.10
2023-04-09T20:45:13.225Z,199.50
2023-04-09T20:47:40.931Z,192.37
2023-04-09T20:50:09.784Z,173.70
2023-04-09T20:52:38.219Z,193.40
2023-04-09T20:55:07.388Z,193.20
2023-04-09T20:57:35.037Z,204.70
2023-04-09T21:00:04.230Z,188.73
2023-04-09T21:02:32.083Z,189.10
2023-04-09T21:05:05.475Z,193.43
2023-04-09T21:07:42.953Z,186.30
2023-04-09T21:10:10.909Z,197.73
2023-04-09T21:12:38.551Z,196.17
2023-04-09T21:15:09.094Z,195.13
2023-04-09T21:17:36.797Z,182.07
2023-04-09T21:20:05.241Z,182.03
2023-04-09T21:22:32.979Z,185.57
2023-04-09T21:25:00.682Z,180.00
2023-04-09T21:27:28.339Z,188.63
2023-04-09T21:29:56.044Z,172.53
2023-04-09T21:32:25.248Z,196.27
2023-04-09T21:34:53.064Z,193.57
2023-04-09T21:37:20.723Z,190.13
2023-04-09T21:39:48.771Z,184.87
2023-04-09T21:42:16.813Z,180.40
2023-04-09T21:44:44.537Z,185.13
2023-04-09T21:47:13.058Z,172.10
2023-04-09T21:49:42.993Z,165.07
2023-04-09T21:52:14.920Z,177.20
2023-04-09T21:54:43.177Z,158.83
2023-04-09T21:57:11.060Z,167.07
2023-04-09T21:59:40.972Z,173.27
2023-04-09T22:02:08.690Z,184.13
2023-04-09T22:04:36.553Z,178.87
2023-04-09T22:07:05.680Z,172.43
2023-04-09T22:09:33.470Z,166.53
2023-04-09T22:12:02.615Z,178.40
2023-04-09T22:14:32.341Z,196.63
2023-04-09T22:17:01.512Z,175.13
2023-04-09T22:19:31.424Z,172.57
2023-04-09T22:21:59.684Z,170.43
2023-04-09T22:24:30.079Z,173.87
2023-04-09T22:26:58.823Z,147.90
2023-04-09T22:29:27.671Z,169.13
2023-04-09T22:31:55.714Z,165.73
2023-04-09T22:34:23.624Z,165.50
2023-04-09T22:36:51.536Z,157.83
2023-04-09T22:39:19.661Z,142.47
2023-04-09T22:41:48.659Z,160.03
2023-04-09T22:44:16.437Z,164.67
2023-04-09T22:46:44.547Z,155.67
2023-04-09T22:49:12.335Z,157.00
2023-04-09T22:51:41.763Z,163.63
2023-04-09T22:54:09.780Z,145.70
2023-04-09T22:56:37.677Z,156.73
2023-04-09T22:59:07.073Z,149.47
2023-04-09T23:01:34.879Z,158.07
2023-04-09T23:04:02.595Z,163.80
2023-04-09T23:06:30.837Z,154.80
2023-04-09T23:08:59.723Z,149.70
2023-04-09T23:11:27.572Z,155.43
2023-04-09T23:13:55.326Z,152.83
2023-04-09T23:16:24.374Z,160.07
2023-04-09T23:18:52.325Z,155.20
2023-04-09T23:21:20.759Z,144.53
2023-04-09T23:23:48.397Z,152.10
2023-04-09T23:26:16.113Z,165.13
2023-04-09T23:28:43.769Z,152.73
2023-04-09T23:31:11.589Z,145.93
2023-04-09T23:33:40.713Z,159.30
2023-04-09T23:36:09.040Z,152.17
2023-04-09T23:38:36.790Z,138.73
2023-04-09T23:41:04.562Z,146.03
2023-04-09T23:43:32.448Z,158.17
2023-04-09T23:46:00.071Z,164.00
2023-04-09T23:48:27.824Z,164.53
2023-04-09T23:50:56.848Z,164.43
2023-04-09T23:53:24.658Z,140.83
2023-04-09T23:55:52.613Z,156.60
2023-04-09T23:58:21.294Z,151.77
